Time;durP1;ratioP1;P1;durP2;ratioP2;P2;SDS_P1;SDS_P2;PMS_P1;PMS_P2;Temp;Humidity;BMP_temperature;BMP_pressure;BME280_temperature;BME280_humidity;BME280_pressure;Samples;Min_cycle;Max_cycle;Signal;HPM_P1;HPM_P2
2023/10/12 00:02:21;;;;;;;8.73;5.03;;;;;;;;;;5007781;28;20030;-77
2023/10/12 00:04:53;;;;;;;11.40;5.10;;;;;;;;;;5005824;28;20046;-76
2023/10/12 00:07:33;;;;;;;11.88;5.03;;;;;;;;;;5023044;28;20579;-77
2023/10/12 00:12:41;;;;;;;8.18;4.97;;;;;;;;;;5008307;28;20048;-77
2023/10/12 00:15:21;;;;;;;16.98;4.70;;;;;;;;;;5008336;28;20030;-77
2023/10/12 00:17:57;;;;;;;8.38;4.78;;;;;;;;;;5008607;28;20493;-77
2023/10/12 00:22:58;;;;;;;10.27;5.15;;;;;;;;;;5007479;28;20117;-77
2023/10/12 00:25:24;;;;;;;10.05;4.88;;;;;;;;;;5006773;28;20037;-77
2023/10/12 00:27:51;;;;;;;8.32;5.18;;;;;;;;;;5008207;28;20042;-77
2023/10/12 00:30:17;;;;;;;9.25;5.13;;;;;;;;;;5007901;28;20815;-77
2023/10/12 00:32:43;;;;;;;10.07;4.63;;;;;;;;;;4991041;28;20497;-78
2023/10/12 00:35:11;;;;;;;11.50;5.15;;;;;;;;;;4988544;28;20030;-77
2023/10/12 00:37:37;;;;;;;10.38;5.65;;;;;;;;;;5003377;28;20030;-77
2023/10/12 00:40:23;;;;;;;12.55;5.03;;;;;;;;;;4986444;28;20042;-77
2023/10/12 00:42:53;;;;;;;13.48;5.30;;;;;;;;;;4987615;28;20038;-77
2023/10/12 00:45:28;;;;;;;13.80;5.80;;;;;;;;;;4987139;28;20031;-77
2023/10/12 00:47:54;;;;;;;11.20;5.45;;;;;;;;;;4986176;28;20035;-77
2023/10/12 00:50:20;;;;;;;14.40;5.97;;;;;;;;;;4988243;28;20025;-77
2023/10/12 00:52:59;;;;;;;11.50;5.65;;;;;;;;;;4987766;28;20035;-77
2023/10/12 00:55:37;;;;;;;10.65;5.72;;;;;;;;;;4987196;28;20035;-77
2023/10/12 00:58:08;;;;;;;12.15;5.85;;;;;;;;;;4995715;28;20069;-77
2023/10/12 01:00:44;;;;;;;12.45;5.93;;;;;;;;;;5005425;28;20113;-77
2023/10/12 01:03:28;;;;;;;12.02;5.57;;;;;;;;;;5006715;28;20077;-77
2023/10/12 01:08:42;;;;;;;10.70;6.25;;;;;;;;;;5008014;28;20041;-78
2023/10/12 01:11:08;;;;;;;11.07;5.65;;;;;;;;;;5009955;28;20034;-77
2023/10/12 01:13:33;;;;;;;11.27;5.95;;;;;;;;;;5018327;28;20572;-77
2023/10/12 01:16:20;;;;;;;14.10;6.53;;;;;;;;;;5022855;28;20029;-76
2023/10/12 01:18:46;;;;;;;13.52;6.40;;;;;;;;;;5010199;28;20660;-77
2023/10/12 01:21:11;;;;;;;12.65;6.57;;;;;;;;;;5007712;28;20145;-77
2023/10/12 01:23:41;;;;;;;11.35;5.90;;;;;;;;;;5007031;28;20080;-77
2023/10/12 01:26:12;;;;;;;11.50;5.95;;;;;;;;;;5006218;28;20030;-77
2023/10/12 01:28:38;;;;;;;10.27;6.10;;;;;;;;;;5005199;28;20471;-78
2023/10/12 01:31:06;;;;;;;11.77;5.95;;;;;;;;;;5004984;28;20044;-77
2023/10/12 01:33:32;;;;;;;10.50;6.18;;;;;;;;;;5006813;28;20041;-78
2023/10/12 01:35:58;;;;;;;13.02;6.10;;;;;;;;;;5006157;28;20073;-77
2023/10/12 01:38:23;;;;;;;11.48;6.22;;;;;;;;;;4992098;28;20121;-78
2023/10/12 01:43:15;;;;;;;12.07;5.95;;;;;;;;;;4987126;28;20557;-77
2023/10/12 01:45:41;;;;;;;12.75;6.03;;;;;;;;;;5001018;28;20038;-78
2023/10/12 01:48:10;;;;;;;17.67;6.72;;;;;;;;;;4987190;28;20038;-78
2023/10/12 01:50:38;;;;;;;15.02;6.70;;;;;;;;;;5001347;28;20029;-77
2023/10/12 01:55:45;;;;;;;20.85;6.75;;;;;;;;;;4986479;28;20270;-78
2023/10/12 01:58:12;;;;;;;12.27;6.60;;;;;;;;;;4994561;28;20509;-78
2023/10/12 02:00:39;;;;;;;17.95;6.45;;;;;;;;;;5005670;28;20034;-78
2023/10/12 02:05:46;;;;;;;16.65;6.93;;;;;;;;;;5005759;28;20037;-78
2023/10/12 02:08:11;;;;;;;12.55;6.38;;;;;;;;;;5006663;28;20025;-78
2023/10/12 02:10:54;;;;;;;12.77;6.88;;;;;;;;;;5005584;28;20030;-78
2023/10/12 02:13:21;;;;;;;18.42;6.85;;;;;;;;;;5006126;28;20042;-78
2023/10/12 02:15:49;;;;;;;12.30;6.50;;;;;;;;;;5005839;28;20048;-78
2023/10/12 02:18:16;;;;;;;15.30;7.43;;;;;;;;;;5004110;28;20398;-77
2023/10/12 02:20:58;;;;;;;17.65;7.00;;;;;;;;;;5005927;28;20028;-77
2023/10/12 02:23:24;;;;;;;13.38;6.43;;;;;;;;;;5005858;28;20141;-78
2023/10/12 02:25:52;;;;;;;14.30;7.15;;;;;;;;;;5006003;28;20066;-78
2023/10/12 02:28:22;;;;;;;15.00;6.72;;;;;;;;;;5005039;28;20038;-77
2023/10/12 02:30:54;;;;;;;17.13;7.93;;;;;;;;;;5002127;28;20030;-77
2023/10/12 02:33:26;;;;;;;13.23;7.20;;;;;;;;;;5011369;28;20098;-77
2023/10/12 02:35:52;;;;;;;12.50;6.35;;;;;;;;;;5017855;28;20053;-78
2023/10/12 02:38:17;;;;;;;14.50;6.57;;;;;;;;;;5010581;28;20030;-78
2023/10/12 02:40:43;;;;;;;13.65;6.90;;;;;;;;;;5005389;28;20054;-77
2023/10/12 02:43:10;;;;;;;15.07;6.47;;;;;;;;;;5004983;28;20526;-77
2023/10/12 02:45:40;;;;;;;15.30;6.97;;;;;;;;;;5003844;28;20038;-78
2023/10/12 02:48:12;;;;;;;12.10;6.57;;;;;;;;;;5005713;28;20066;-77
2023/10/12 02:50:48;;;;;;;12.65;6.00;;;;;;;;;;5004083;28;20026;-77
2023/10/12 02:53:17;;;;;;;14.18;6.47;;;;;;;;;;5005596;28;20072;-78
2023/10/12 02:55:46;;;;;;;14.13;6.60;;;;;;;;;;5004960;28;20041;-78
2023/10/12 03:03:09;;;;;;;11.02;6.30;;;;;;;;;;5004925;28;20030;-78
2023/10/12 03:05:46;;;;;;;13.63;6.35;;;;;;;;;;5004954;28;20594;-77
2023/10/12 03:08:16;;;;;;;11.63;6.20;;;;;;;;;;5003743;28;20168;-78
2023/10/12 03:13:40;;;;;;;9.65;5.40;;;;;;;;;;5004949;28;20044;-77
2023/10/12 03:18:44;;;;;;;12.68;5.57;;;;;;;;;;5005086;28;20164;-77
2023/10/12 03:21:14;;;;;;;13.23;6.30;;;;;;;;;;5003427;28;20113;-77
2023/10/12 03:23:40;;;;;;;13.30;6.07;;;;;;;;;;5004019;28;20409;-77
2023/10/12 03:26:28;;;;;;;10.38;6.18;;;;;;;;;;5005283;28;20030;-77
2023/10/12 03:34:30;;;;;;;11.10;6.45;;;;;;;;;;5004536;28;20057;-77
2023/10/12 03:36:58;;;;;;;9.20;5.07;;;;;;;;;;5004812;28;20030;-77
2023/10/12 03:39:27;;;;;;;13.90;5.45;;;;;;;;;;5004224;28;20038;-77
2023/10/12 03:42:09;;;;;;;11.63;5.45;;;;;;;;;;5005181;28;20052;-77
2023/10/12 03:52:19;;;;;;;12.68;5.97;;;;;;;;;;5006241;28;20440;-77
2023/10/12 03:54:55;;;;;;;10.68;5.90;;;;;;;;;;5012709;28;20103;-77
2023/10/12 03:57:38;;;;;;;9.02;5.18;;;;;;;;;;5019854;28;20129;-76
2023/10/12 04:16:40;;;;;;;9.98;5.82;;;;;;;;;;5004924;28;20034;-77
2023/10/12 04:21:17;;;;;;;10.50;5.65;;;;;;;;;;5005959;28;20088;-77
2023/10/12 04:24:29;;;;;;;10.70;5.63;;;;;;;;;;5008037;28;20057;-77
2023/10/12 04:29:01;;;;;;;14.20;5.43;;;;;;;;;;5007638;28;20054;-77
2023/10/12 04:41:46;;;;;;;11.18;6.30;;;;;;;;;;5007760;28;20036;-77
2023/10/12 04:47:04;;;;;;;11.35;5.60;;;;;;;;;;5007629;28;20085;-77
2023/10/12 04:52:13;;;;;;;12.57;5.40;;;;;;;;;;5007537;28;20113;-77
2023/10/12 04:57:16;;;;;;;11.63;5.22;;;;;;;;;;5007164;28;20116;-77
2023/10/12 05:07:28;;;;;;;8.38;5.35;;;;;;;;;;5007565;28;20049;-77
2023/10/12 05:09:56;;;;;;;13.55;5.80;;;;;;;;;;5004910;28;20053;-77
2023/10/12 05:12:23;;;;;;;12.20;5.10;;;;;;;;;;5007903;28;20766;-77
2023/10/12 05:14:55;;;;;;;11.27;5.72;;;;;;;;;;5009064;28;20026;-77
2023/10/12 05:17:23;;;;;;;12.40;5.57;;;;;;;;;;5019850;28;20034;-77
2023/10/12 05:19:52;;;;;;;10.48;5.68;;;;;;;;;;5014280;28;20065;-78
2023/10/12 05:22:21;;;;;;;9.90;5.60;;;;;;;;;;5006751;28;20034;-78
2023/10/12 05:24:46;;;;;;;15.43;6.15;;;;;;;;;;5006560;28;20159;-77
2023/10/12 05:27:38;;;;;;;12.35;6.18;;;;;;;;;;5006647;28;20958;-77
2023/10/12 05:30:06;;;;;;;12.77;5.82;;;;;;;;;;5004923;28;20049;-78
2023/10/12 05:32:42;;;;;;;13.23;5.22;;;;;;;;;;5001810;28;20026;-79
2023/10/12 05:35:15;;;;;;;12.48;5.28;;;;;;;;;;4998129;28;20839;-79
2023/10/12 05:37:49;;;;;;;11.25;5.30;;;;;;;;;;5003105;28;20104;-79
2023/10/12 05:40:16;;;;;;;9.93;5.85;;;;;;;;;;5004434;28;20124;-79
2023/10/12 05:42:46;;;;;;;14.15;5.78;;;;;;;;;;5007153;28;20084;-79
2023/10/12 05:45:30;;;;;;;12.63;6.00;;;;;;;;;;5005341;28;20029;-79
2023/10/12 05:47:56;;;;;;;13.82;5.82;;;;;;;;;;5004882;28;20044;-79
2023/10/12 05:50:23;;;;;;;11.82;5.68;;;;;;;;;;5007463;28;20129;-79
2023/10/12 05:52:53;;;;;;;11.45;5.53;;;;;;;;;;5006247;28;20520;-79
2023/10/12 05:55:22;;;;;;;10.20;5.45;;;;;;;;;;5006218;28;20132;-79
2023/10/12 05:57:50;;;;;;;12.38;6.30;;;;;;;;;;5006017;28;20088;-80
2023/10/12 06:00:35;;;;;;;11.32;5.70;;;;;;;;;;5006061;28;20064;-79
2023/10/12 06:03:07;;;;;;;9.63;5.45;;;;;;;;;;4992420;28;20148;-80
2023/10/12 06:05:34;;;;;;;11.60;5.47;;;;;;;;;;5005766;28;20026;-79
2023/10/12 06:08:03;;;;;;;16.45;6.05;;;;;;;;;;5006558;28;20038;-79
2023/10/12 06:10:28;;;;;;;11.43;6.15;;;;;;;;;;5001910;28;20120;-80
2023/10/12 06:12:56;;;;;;;10.68;5.15;;;;;;;;;;5002308;28;20143;-79
2023/10/12 06:15:25;;;;;;;10.45;5.47;;;;;;;;;;5007529;28;20038;-81
2023/10/12 06:17:51;;;;;;;11.32;5.13;;;;;;;;;;5006571;28;20048;-80
2023/10/12 06:20:30;;;;;;;11.73;5.18;;;;;;;;;;5006943;28;20033;-80
2023/10/12 06:22:56;;;;;;;10.52;5.20;;;;;;;;;;5006485;28;20042;-80
2023/10/12 06:25:21;;;;;;;12.25;5.40;;;;;;;;;;5004930;28;20467;-80
2023/10/12 06:27:50;;;;;;;12.18;5.50;;;;;;;;;;5006379;28;20033;-80
2023/10/12 06:30:18;;;;;;;10.15;5.47;;;;;;;;;;5004953;28;20038;-80
2023/10/12 06:32:47;;;;;;;9.82;5.00;;;;;;;;;;5005394;28;20091;-77
2023/10/12 06:35:23;;;;;;;16.60;5.35;;;;;;;;;;5009521;28;20034;-77
2023/10/12 06:45:51;;;;;;;11.10;5.30;;;;;;;;;;4975017;28;20040;-77
2023/10/12 06:51:05;;;;;;;12.38;5.78;;;;;;;;;;5004898;28;20084;-77
2023/10/12 06:53:35;;;;;;;11.52;5.47;;;;;;;;;;5001380;28;20049;-77
2023/10/12 06:58:40;;;;;;;11.85;5.50;;;;;;;;;;5005223;28;20030;-77
2023/10/12 07:03:49;;;;;;;9.88;5.90;;;;;;;;;;5004978;28;20048;-77
2023/10/12 07:06:15;;;;;;;10.25;5.40;;;;;;;;;;5004030;28;20042;-76
2023/10/12 07:08:42;;;;;;;12.98;6.00;;;;;;;;;;5019866;28;20125;-77
2023/10/12 07:11:11;;;;;;;14.55;5.75;;;;;;;;;;5005060;28;20030;-77
2023/10/12 07:13:41;;;;;;;14.43;5.57;;;;;;;;;;5019948;28;20164;-77
2023/10/12 07:16:10;;;;;;;13.52;5.80;;;;;;;;;;5005091;28;20042;-77
2023/10/12 07:18:42;;;;;;;12.27;5.50;;;;;;;;;;5004553;28;20087;-77
2023/10/12 07:21:20;;;;;;;13.02;6.20;;;;;;;;;;5004711;28;20083;-77
2023/10/12 07:23:56;;;;;;;13.80;5.63;;;;;;;;;;5001014;28;20030;-77
2023/10/12 07:26:23;;;;;;;11.75;5.25;;;;;;;;;;5004021;28;20030;-77
2023/10/12 07:28:50;;;;;;;12.38;5.57;;;;;;;;;;5004940;28;20584;-77
2023/10/12 07:36:35;;;;;;;11.23;5.90;;;;;;;;;;5004100;28;20051;-77
2023/10/12 07:41:53;;;;;;;12.20;6.20;;;;;;;;;;5004680;28;20124;-77
2023/10/12 07:44:27;;;;;;;12.23;5.38;;;;;;;;;;5003756;28;20026;-76
2023/10/12 07:46:56;;;;;;;11.85;5.85;;;;;;;;;;5005388;28;20137;-76
2023/10/12 07:49:25;;;;;;;9.65;5.57;;;;;;;;;;5003791;28;20692;-77
2023/10/12 07:52:02;;;;;;;12.82;6.25;;;;;;;;;;5003519;28;20046;-76
2023/10/12 07:57:11;;;;;;;15.05;6.60;;;;;;;;;;5013095;28;20144;-75
2023/10/12 07:59:38;;;;;;;18.45;6.53;;;;;;;;;;4999852;28;20022;-76
2023/10/12 08:02:08;;;;;;;13.20;6.40;;;;;;;;;;4992030;28;20034;-76
2023/10/12 08:04:34;;;;;;;16.95;6.60;;;;;;;;;;4989016;28;20039;-76
2023/10/12 08:07:06;;;;;;;14.60;6.28;;;;;;;;;;4999922;28;20161;-77
2023/10/12 08:11:58;;;;;;;16.30;6.70;;;;;;;;;;5000080;28;20034;-77
2023/10/12 08:19:44;;;;;;;11.00;5.68;;;;;;;;;;5008388;28;20044;-77
2023/10/12 08:24:58;;;;;;;14.57;7.00;;;;;;;;;;4986614;28;20108;-77
2023/10/12 08:27:25;;;;;;;13.00;6.38;;;;;;;;;;5002220;28;20048;-77
2023/10/12 08:32:29;;;;;;;13.77;6.55;;;;;;;;;;5006582;28;20037;-77
2023/10/12 08:37:26;;;;;;;17.27;6.80;;;;;;;;;;5001819;28;20044;-76
2023/10/12 08:42:37;;;;;;;14.23;7.30;;;;;;;;;;4997167;28;20057;-77
2023/10/12 08:45:09;;;;;;;12.18;6.65;;;;;;;;;;5002583;28;20072;-76
2023/10/12 08:50:08;;;;;;;15.43;6.63;;;;;;;;;;5003591;28;20025;-76
2023/10/12 08:52:36;;;;;;;12.27;6.70;;;;;;;;;;5002962;28;20034;-76
2023/10/12 08:55:12;;;;;;;11.60;6.60;;;;;;;;;;5005148;28;20389;-76
2023/10/12 08:58:13;;;;;;;16.42;7.00;;;;;;;;;;5000290;28;20038;-76
2023/10/12 09:00:44;;;;;;;11.85;5.90;;;;;;;;;;4970594;28;20042;-76
2023/10/12 09:05:46;;;;;;;;;;;;;;;;;;5006372;28;20034;-76
2023/10/12 09:10:49;;;;;;;13.65;6.78;;;;;;;;;;5005760;28;20555;-77
2023/10/12 09:13:22;;;;;;;11.77;5.45;;;;;;;;;;5006396;28;20046;-76
2023/10/12 09:15:55;;;;;;;13.07;6.00;;;;;;;;;;5000717;28;20048;-77
2023/10/12 09:18:26;;;;;;;52.55;8.32;;;;;;;;;;5006126;28;20301;-76
2023/10/12 09:28:53;;;;;;;11.38;6.40;;;;;;;;;;4987138;28;20507;-77
2023/10/12 09:34:31;;;;;;;15.77;6.43;;;;;;;;;;4999567;28;20038;-77
2023/10/12 09:36:43;;;;;;;11.13;6.15;;;;;;;;;;4994699;28;20603;-77
2023/10/12 09:39:13;;;;;;;9.57;6.35;;;;;;;;;;5003399;28;20049;-74
2023/10/12 09:41:40;;;;;;;10.77;5.90;;;;;;;;;;4999647;28;20034;-75
2023/10/12 09:44:07;;;;;;;12.45;6.50;;;;;;;;;;5004030;28;20431;-75
2023/10/12 09:46:33;;;;;;;11.90;6.00;;;;;;;;;;5001701;28;20436;-77
2023/10/12 09:49:21;;;;;;;14.63;6.57;;;;;;;;;;5001850;28;20145;-75
2023/10/12 09:51:50;;;;;;;11.50;5.78;;;;;;;;;;4999902;28;20338;-75
2023/10/12 09:54:21;;;;;;;15.52;6.40;;;;;;;;;;5000607;28;20083;-75
2023/10/12 09:56:57;;;;;;;17.33;6.90;;;;;;;;;;5000522;28;20481;-75
2023/10/12 09:59:23;;;;;;;14.82;6.35;;;;;;;;;;5001540;28;20044;-75
2023/10/12 10:07:26;;;;;;;14.48;6.70;;;;;;;;;;5001878;28;20426;-75
2023/10/12 10:09:54;;;;;;;8.98;6.00;;;;;;;;;;5001673;28;20542;-75
2023/10/12 10:12:24;;;;;;;15.93;6.88;;;;;;;;;;5000031;28;20048;-76
2023/10/12 10:14:59;;;;;;;12.40;6.25;;;;;;;;;;5000553;28;20026;-75
2023/10/12 10:17:35;;;;;;;13.27;6.53;;;;;;;;;;5002921;28;20022;-75
2023/10/12 10:23:14;;;;;;;15.27;6.80;;;;;;;;;;5002179;28;20046;-75
2023/10/12 10:25:45;;;;;;;11.55;6.53;;;;;;;;;;5000652;28;20568;-75
2023/10/12 10:28:25;;;;;;;14.93;6.72;;;;;;;;;;5000156;28;20100;-75
2023/10/12 10:30:52;;;;;;;11.52;6.25;;;;;;;;;;5002247;28;20532;-75
2023/10/12 10:33:25;;;;;;;12.43;6.22;;;;;;;;;;5002643;28;20533;-75
2023/10/12 10:36:24;;;;;;;17.40;6.60;;;;;;;;;;5001171;28;20101;-75
2023/10/12 10:41:22;;;;;;;11.75;5.72;;;;;;;;;;5015760;28;20096;-76
2023/10/12 10:43:51;;;;;;;12.10;6.30;;;;;;;;;;5012648;28;20037;-75
2023/10/12 10:46:17;;;;;;;12.93;6.03;;;;;;;;;;4999741;28;20042;-75
2023/10/12 10:48:53;;;;;;;15.35;6.55;;;;;;;;;;5002060;28;20041;-75
2023/10/12 10:51:19;;;;;;;14.20;6.22;;;;;;;;;;4999791;28;20034;-75
2023/10/12 10:53:54;;;;;;;15.45;6.53;;;;;;;;;;4999345;28;20026;-75
2023/10/12 10:56:34;;;;;;;18.13;6.53;;;;;;;;;;4999231;28;20042;-75
2023/10/12 10:59:05;;;;;;;15.18;7.97;;;;;;;;;;4996946;28;20045;-75
2023/10/12 11:01:31;;;;;;;21.60;9.73;;;;;;;;;;4998688;28;20049;-75
2023/10/12 11:04:01;;;;;;;15.70;8.77;;;;;;;;;;5000793;28;20029;-75
2023/10/12 11:06:27;;;;;;;22.23;9.38;;;;;;;;;;5000243;28;20057;-75
2023/10/12 11:09:06;;;;;;;14.88;8.27;;;;;;;;;;4997693;28;20550;-75
2023/10/12 11:11:38;;;;;;;18.70;7.90;;;;;;;;;;4997790;28;20080;-75
2023/10/12 11:14:10;;;;;;;16.27;8.27;;;;;;;;;;5010778;28;20022;-75
2023/10/12 11:16:36;;;;;;;13.32;7.13;;;;;;;;;;4987722;28;20048;-75
2023/10/12 11:19:03;;;;;;;11.48;6.88;;;;;;;;;;4988070;28;20040;-75
2023/10/12 11:21:29;;;;;;;14.15;6.80;;;;;;;;;;5001047;28;20108;-75
2023/10/12 11:24:09;;;;;;;13.52;6.75;;;;;;;;;;5000306;28;20111;-75
2023/10/12 11:26:50;;;;;;;14.02;7.22;;;;;;;;;;4999850;28;20029;-75
2023/10/12 11:29:16;;;;;;;27.50;11.20;;;;;;;;;;4999114;28;20033;-75
2023/10/12 11:31:46;;;;;;;20.42;9.20;;;;;;;;;;5000339;28;20042;-75
2023/10/12 11:34:12;;;;;;;21.40;10.40;;;;;;;;;;5000926;28;20045;-75
2023/10/12 11:36:38;;;;;;;24.45;9.32;;;;;;;;;;5000665;28;20056;-75
2023/10/12 11:39:18;;;;;;;23.55;9.80;;;;;;;;;;5001501;28;20037;-75
2023/10/12 11:42:07;;;;;;;31.45;10.20;;;;;;;;;;5000541;28;20103;-75
2023/10/12 11:44:43;;;;;;;18.65;8.13;;;;;;;;;;5000876;28;20034;-75
2023/10/12 11:47:10;;;;;;;14.27;6.97;;;;;;;;;;5000529;28;20030;-75
2023/10/12 11:49:55;;;;;;;16.23;7.53;;;;;;;;;;5001135;28;20521;-75
2023/10/12 11:52:32;;;;;;;14.68;7.07;;;;;;;;;;4999297;28;20034;-75
2023/10/12 11:55:06;;;;;;;17.02;7.10;;;;;;;;;;5000509;28;20248;-75
2023/10/12 11:57:41;;;;;;;15.90;6.90;;;;;;;;;;5004470;28;20303;-75
2023/10/12 12:00:31;;;;;;;14.02;6.80;;;;;;;;;;5012629;28;20068;-75
2023/10/12 12:02:57;;;;;;;15.15;6.95;;;;;;;;;;5006712;28;20045;-75
2023/10/12 12:05:25;;;;;;;14.80;7.03;;;;;;;;;;4996501;28;20033;-76
2023/10/12 12:07:51;;;;;;;16.98;7.82;;;;;;;;;;4993655;28;20037;-76
2023/10/12 12:10:45;;;;;;;31.17;12.35;;;;;;;;;;4996279;28;20033;-76
2023/10/12 12:13:12;;;;;;;22.20;10.48;;;;;;;;;;4993325;28;20112;-76
2023/10/12 12:15:43;;;;;;;19.85;10.48;;;;;;;;;;5000764;28;20034;-76
2023/10/12 12:18:19;;;;;;;27.83;10.82;;;;;;;;;;4997271;28;20045;-76
2023/10/12 12:20:49;;;;;;;18.17;8.93;;;;;;;;;;4994271;28;20080;-76
2023/10/12 12:23:15;;;;;;;23.77;8.43;;;;;;;;;;4990604;28;20095;-76
2023/10/12 12:25:42;;;;;;;15.70;7.88;;;;;;;;;;4999258;28;20573;-76
2023/10/12 12:28:14;;;;;;;15.48;7.80;;;;;;;;;;4998613;28;20867;-75
2023/10/12 12:30:46;;;;;;;22.15;8.77;;;;;;;;;;4988944;28;20043;-75
2023/10/12 12:33:15;;;;;;;16.83;9.05;;;;;;;;;;4978060;28;20034;-76
2023/10/12 12:35:44;;;;;;;22.52;8.32;;;;;;;;;;4978559;28;20060;-76
2023/10/12 12:40:56;;;;;;;21.55;8.43;;;;;;;;;;4980559;28;20040;-76
2023/10/12 12:43:21;;;;;;;18.38;7.78;;;;;;;;;;4985961;28;20393;-76
2023/10/12 12:45:47;;;;;;;17.67;9.15;;;;;;;;;;4998915;28;20677;-75
2023/10/12 12:48:12;;;;;;;20.13;8.57;;;;;;;;;;5003882;28;20049;-75
2023/10/12 12:50:38;;;;;;;19.23;7.95;;;;;;;;;;5002952;28;20034;-76
2023/10/12 12:53:06;;;;;;;14.88;7.82;;;;;;;;;;5002917;28;20033;-76
2023/10/12 12:55:38;;;;;;;16.83;7.50;;;;;;;;;;5000995;28;20346;-75
2023/10/12 12:58:07;;;;;;;14.15;7.63;;;;;;;;;;4996491;28;20050;-76
2023/10/12 13:00:33;;;;;;;16.20;7.70;;;;;;;;;;5002851;28;20038;-76
2023/10/12 13:03:00;;;;;;;18.10;7.45;;;;;;;;;;5006542;28;20535;-76
2023/10/12 13:05:28;;;;;;;13.35;7.18;;;;;;;;;;5003355;28;20111;-76
2023/10/12 13:07:54;;;;;;;25.20;8.70;;;;;;;;;;5002192;28;20065;-76
2023/10/12 13:10:21;;;;;;;19.90;9.23;;;;;;;;;;5003197;28;20037;-76
2023/10/12 13:12:47;;;;;;;15.77;8.00;;;;;;;;;;4998207;28;20599;-76
2023/10/12 13:15:14;;;;;;;19.30;8.93;;;;;;;;;;4998953;28;20073;-76
2023/10/12 13:17:40;;;;;;;15.55;8.13;;;;;;;;;;5007471;28;20026;-76
2023/10/12 13:20:18;;;;;;;17.48;8.00;;;;;;;;;;5014050;28;20105;-76
2023/10/12 13:22:44;;;;;;;19.02;8.93;;;;;;;;;;5015985;28;20041;-76
2023/10/12 13:25:10;;;;;;;20.25;9.45;;;;;;;;;;5000096;28;20046;-76
2023/10/12 13:27:37;;;;;;;19.58;9.40;;;;;;;;;;5002014;28;20661;-75
2023/10/12 13:30:09;;;;;;;14.95;7.88;;;;;;;;;;5001717;28;20508;-75
2023/10/12 13:32:38;;;;;;;16.65;8.20;;;;;;;;;;4999405;28;20034;-75
2023/10/12 13:35:18;;;;;;;18.25;9.38;;;;;;;;;;5002728;28;20032;-75
2023/10/12 13:37:47;;;;;;;16.15;8.98;;;;;;;;;;5002085;28;20040;-75
2023/10/12 13:40:16;;;;;;;23.75;8.25;;;;;;;;;;5000224;28;20143;-76
2023/10/12 13:42:43;;;;;;;21.30;9.43;;;;;;;;;;5002319;28;20045;-76
2023/10/12 13:45:12;;;;;;;23.67;9.02;;;;;;;;;;5000494;28;20044;-74
2023/10/12 13:47:42;;;;;;;18.60;8.88;;;;;;;;;;4979099;28;21073;-77
2023/10/12 13:50:11;;;;;;;20.15;9.02;;;;;;;;;;4982103;28;20109;-77
2023/10/12 13:52:37;;;;;;;17.42;9.00;;;;;;;;;;4997730;28;20273;-75
2023/10/12 13:55:11;;;;;;;19.05;9.48;;;;;;;;;;4993444;28;20042;-76
2023/10/12 13:57:57;;;;;;;20.20;9.73;;;;;;;;;;4997098;28;20136;-76
2023/10/12 14:00:25;;;;;;;20.73;9.65;;;;;;;;;;4981109;28;20042;-78
2023/10/12 14:02:58;;;;;;;21.42;10.40;;;;;;;;;;4993480;28;20038;-77
2023/10/12 14:05:27;;;;;;;24.20;10.53;;;;;;;;;;5000267;28;20025;-77
2023/10/12 14:07:54;;;;;;;25.58;11.13;;;;;;;;;;4995738;28;20383;-77
2023/10/12 14:10:22;;;;;;;18.98;10.00;;;;;;;;;;4999313;28;20036;-77
2023/10/12 14:12:49;;;;;;;18.30;9.30;;;;;;;;;;5001919;28;20084;-78
2023/10/12 14:15:14;;;;;;;19.95;9.32;;;;;;;;;;4993359;28;20111;-78
2023/10/12 14:17:40;;;;;;;16.63;9.55;;;;;;;;;;5002207;28;20535;-78
2023/10/12 14:20:05;;;;;;;20.52;10.38;;;;;;;;;;5000615;28;20461;-77
2023/10/12 14:22:33;;;;;;;17.95;9.52;;;;;;;;;;5000908;28;20033;-77
2023/10/12 14:25:03;;;;;;;21.15;9.85;;;;;;;;;;4999841;28;20121;-77
2023/10/12 14:27:29;;;;;;;21.33;11.57;;;;;;;;;;5001370;28;20664;-77
2023/10/12 14:29:54;;;;;;;20.00;9.68;;;;;;;;;;4999960;28;20034;-77
2023/10/12 14:32:20;;;;;;;21.52;10.82;;;;;;;;;;5001931;28;20489;-77
2023/10/12 14:34:46;;;;;;;20.88;9.75;;;;;;;;;;5002607;28;20041;-77
2023/10/12 14:37:13;;;;;;;17.63;8.88;;;;;;;;;;5002746;28;20037;-77
2023/10/12 14:39:41;;;;;;;20.63;10.82;;;;;;;;;;5007265;28;20089;-77
2023/10/12 14:42:08;;;;;;;18.60;10.65;;;;;;;;;;5015508;28;20046;-77
2023/10/12 14:44:34;;;;;;;25.75;12.48;;;;;;;;;;5006191;28;20026;-78
2023/10/12 14:47:05;;;;;;;20.58;11.20;;;;;;;;;;5002280;28;20407;-78
2023/10/12 14:49:33;;;;;;;17.15;10.10;;;;;;;;;;5001471;28;20226;-77
2023/10/12 14:52:00;;;;;;;23.63;10.52;;;;;;;;;;5001930;28;20061;-79
2023/10/12 14:54:25;;;;;;;20.92;11.10;;;;;;;;;;4989558;28;20133;-79
2023/10/12 14:56:53;;;;;;;24.02;11.88;;;;;;;;;;4981305;28;20044;-79
2023/10/12 14:59:19;;;;;;;25.80;11.57;;;;;;;;;;5000028;28;20017;-79
2023/10/12 15:01:45;;;;;;;19.77;10.68;;;;;;;;;;4999692;28;20412;-79
2023/10/12 15:04:10;;;;;;;24.13;10.70;;;;;;;;;;5000860;28;20097;-79
2023/10/12 15:06:36;;;;;;;19.58;10.13;;;;;;;;;;5001351;28;20069;-79
2023/10/12 15:09:01;;;;;;;23.60;11.00;;;;;;;;;;5000816;28;20068;-78
2023/10/12 15:11:26;;;;;;;20.48;10.57;;;;;;;;;;5001156;28;20647;-82
2023/10/12 15:13:53;;;;;;;23.77;11.32;;;;;;;;;;5000111;28;20418;-83
2023/10/12 15:16:19;;;;;;;21.15;11.18;;;;;;;;;;5000424;28;20057;-78
2023/10/12 15:18:44;;;;;;;22.08;11.48;;;;;;;;;;5000876;28;20068;-78
2023/10/12 15:21:11;;;;;;;23.08;11.07;;;;;;;;;;4994551;28;20512;-78
2023/10/12 15:23:37;;;;;;;29.23;11.15;;;;;;;;;;4999169;28;20125;-78
2023/10/12 15:26:02;;;;;;;22.45;11.23;;;;;;;;;;5000939;28;20021;-78
2023/10/12 15:28:30;;;;;;;20.35;10.88;;;;;;;;;;4999550;28;20081;-78
2023/10/12 15:30:56;;;;;;;22.95;11.18;;;;;;;;;;5001026;28;20060;-78
2023/10/12 15:33:22;;;;;;;24.27;11.77;;;;;;;;;;4999996;28;20468;-78
2023/10/12 15:35:48;;;;;;;22.90;10.68;;;;;;;;;;5000379;28;20026;-78
2023/10/12 15:38:14;;;;;;;20.35;10.75;;;;;;;;;;5001029;28;20092;-78
2023/10/12 15:40:40;;;;;;;21.40;11.52;;;;;;;;;;5000826;28;20576;-78
2023/10/12 15:43:14;;;;;;;25.90;11.05;;;;;;;;;;4999848;28;20420;-77
2023/10/12 15:45:40;;;;;;;25.27;11.65;;;;;;;;;;4998817;28;20041;-77
2023/10/12 15:48:09;;;;;;;24.15;10.77;;;;;;;;;;4999924;28;20547;-77
2023/10/12 15:50:35;;;;;;;25.27;11.30;;;;;;;;;;5000662;28;20319;-77
2023/10/12 15:53:00;;;;;;;23.63;10.77;;;;;;;;;;4999718;28;20036;-77
2023/10/12 15:55:25;;;;;;;18.80;10.38;;;;;;;;;;5000911;28;20041;-77
2023/10/12 15:57:52;;;;;;;18.92;10.57;;;;;;;;;;5000193;28;20057;-77
2023/10/12 16:00:22;;;;;;;21.63;10.27;;;;;;;;;;5008235;28;20030;-77
2023/10/12 16:02:56;;;;;;;18.05;9.82;;;;;;;;;;5006444;28;20042;-76
2023/10/12 16:05:24;;;;;;;19.20;9.70;;;;;;;;;;4998685;28;20018;-77
2023/10/12 16:07:50;;;;;;;24.33;10.60;;;;;;;;;;5000038;28;20432;-76
2023/10/12 16:10:17;;;;;;;19.50;9.70;;;;;;;;;;4998470;28;20566;-80
2023/10/12 16:12:45;;;;;;;20.50;10.32;;;;;;;;;;4998428;28;20034;-85
2023/10/12 16:15:12;;;;;;;18.50;10.10;;;;;;;;;;4992229;28;20038;-77
2023/10/12 16:17:39;;;;;;;18.90;9.95;;;;;;;;;;4998954;28;20030;-77
2023/10/12 16:20:06;;;;;;;23.00;11.10;;;;;;;;;;5000226;28;20348;-77
2023/10/12 16:22:32;;;;;;;21.00;9.85;;;;;;;;;;5004095;28;20042;-77
2023/10/12 16:25:06;;;;;;;21.65;11.02;;;;;;;;;;5003550;28;20037;-76
2023/10/12 16:27:35;;;;;;;18.70;10.57;;;;;;;;;;5004216;28;20033;-77
2023/10/12 16:30:04;;;;;;;19.17;10.40;;;;;;;;;;5000600;28;20045;-76
2023/10/12 16:32:30;;;;;;;19.23;10.63;;;;;;;;;;4986710;28;20480;-76
2023/10/12 16:34:56;;;;;;;20.50;11.70;;;;;;;;;;4984833;28;20050;-77
2023/10/12 16:37:21;;;;;;;21.08;11.68;;;;;;;;;;4985490;28;20239;-77
2023/10/12 16:39:46;;;;;;;22.23;10.85;;;;;;;;;;5000122;28;20468;-76
2023/10/12 16:42:12;;;;;;;20.42;11.00;;;;;;;;;;5001252;28;20042;-77
2023/10/12 16:44:37;;;;;;;18.63;11.07;;;;;;;;;;5000345;28;20036;-77
2023/10/12 16:47:02;;;;;;;25.05;11.50;;;;;;;;;;4997399;28;20032;-77
2023/10/12 16:49:28;;;;;;;24.67;11.77;;;;;;;;;;4999598;28;20694;-77
2023/10/12 16:51:56;;;;;;;24.27;10.52;;;;;;;;;;5003384;28;20044;-78
2023/10/12 16:54:22;;;;;;;22.73;11.45;;;;;;;;;;5004466;28;20072;-77
2023/10/12 16:56:47;;;;;;;20.90;11.27;;;;;;;;;;5001916;28;20037;-77
2023/10/12 16:59:15;;;;;;;20.55;11.15;;;;;;;;;;5004447;28;20034;-77
2023/10/12 17:01:44;;;;;;;22.67;11.15;;;;;;;;;;5003422;28;20145;-77
2023/10/12 17:04:12;;;;;;;22.67;11.65;;;;;;;;;;5002484;28;20041;-77
2023/10/12 17:06:38;;;;;;;19.65;11.63;;;;;;;;;;4998063;28;20122;-76
2023/10/12 17:09:04;;;;;;;22.50;11.20;;;;;;;;;;4982719;28;20038;-77
2023/10/12 17:11:29;;;;;;;22.02;11.82;;;;;;;;;;4999544;28;20029;-77
2023/10/12 17:13:54;;;;;;;19.35;10.60;;;;;;;;;;4998537;28;20564;-77
2023/10/12 17:16:21;;;;;;;20.23;10.65;;;;;;;;;;5002339;28;20048;-77
2023/10/12 17:18:47;;;;;;;21.45;11.05;;;;;;;;;;5003518;28;20033;-77
2023/10/12 17:21:12;;;;;;;20.25;10.40;;;;;;;;;;5021419;28;20045;-77
2023/10/12 17:23:38;;;;;;;22.83;10.70;;;;;;;;;;5014158;28;20021;-77
2023/10/12 17:26:03;;;;;;;19.88;10.48;;;;;;;;;;5007913;28;20026;-77
2023/10/12 17:28:29;;;;;;;19.65;10.10;;;;;;;;;;5003420;28;20488;-77